createdAt,value
2023-04-27T00:00:18.037Z,13.23
2023-04-27T00:03:24.514Z,13.19
2023-04-27T00:06:30.078Z,13.14
2023-04-27T00:09:35.911Z,13.09
2023-04-27T00:12:41.464Z,13.04
2023-04-27T00:15:47.653Z,12.97
2023-04-27T00:18:54.210Z,12.94
2023-04-27T00:22:00.686Z,12.93
2023-04-27T00:25:07.275Z,12.92
2023-04-27T00:28:13.337Z,12.89
2023-04-27T00:31:19.642Z,12.90
2023-04-27T00:34:25.105Z,12.90
2023-04-27T00:37:31.264Z,12.90
2023-04-27T00:40:36.246Z,12.90
2023-04-27T00:43:41.434Z,12.89
2023-04-27T00:46:47.070Z,12.89
2023-04-27T00:49:52.980Z,12.88
2023-04-27T00:52:58.920Z,12.89
2023-04-27T00:56:05.188Z,12.88
2023-04-27T00:59:11.897Z,12.88
2023-04-27T01:02:17.839Z,12.88
2023-04-27T01:05:24.420Z,12.88
2023-04-27T01:08:29.599Z,12.89
2023-04-27T01:11:34.802Z,12.88
2023-04-27T01:14:39.627Z,12.85
2023-04-27T01:17:44.727Z,12.85
2023-04-27T01:20:51.421Z,12.85
2023-04-27T01:23:58.341Z,12.87
2023-04-27T01:27:04.370Z,12.84
2023-04-27T01:30:11.042Z,12.84
2023-04-27T01:33:16.598Z,12.84
2023-04-27T01:36:22.806Z,12.82
2023-04-27T01:39:27.896Z,12.80
2023-04-27T01:42:32.659Z,12.76
2023-04-27T01:45:40.126Z,12.73
2023-04-27T01:48:45.482Z,12.70
2023-04-27T01:51:50.854Z,12.70
2023-04-27T01:54:56.188Z,12.70
2023-04-27T01:58:03.049Z,12.70
2023-04-27T02:01:08.282Z,12.71
2023-04-27T02:04:14.228Z,12.66
2023-04-27T02:07:14.116Z,12.62
2023-04-27T02:10:22.086Z,12.59
2023-04-27T02:13:27.862Z,12.59
2023-04-27T02:16:34.073Z,12.59
2023-04-27T02:19:33.638Z,12.59
2023-04-27T02:22:40.003Z,12.54
2023-04-27T02:25:45.784Z,12.53
2023-04-27T02:28:52.143Z,12.50
2023-04-27T02:31:58.368Z,12.48
2023-04-27T02:35:05.311Z,12.45
2023-04-27T02:38:11.654Z,12.42
2023-04-27T02:41:17.012Z,12.37
2023-04-27T02:44:25.070Z,12.33
2023-04-27T02:47:32.194Z,12.33
2023-04-27T02:50:38.241Z,12.34
2023-04-27T02:53:43.632Z,12.31
2023-04-27T02:56:49.033Z,12.28
2023-04-27T02:59:54.481Z,12.29
2023-04-27T03:03:00.655Z,12.29
2023-04-27T03:06:06.852Z,12.34
2023-04-27T03:09:13.267Z,12.38
2023-04-27T03:12:21.183Z,12.41
2023-04-27T03:15:27.561Z,12.43
2023-04-27T03:18:33.897Z,12.46
2023-04-27T03:21:39.766Z,12.48
2023-04-27T03:24:47.794Z,12.50
2023-04-27T03:27:54.579Z,12.54
2023-04-27T03:31:00.922Z,12.57
2023-04-27T03:34:06.793Z,12.58
2023-04-27T03:37:13.685Z,12.63
2023-04-27T03:40:19.310Z,12.68
2023-04-27T03:43:25.475Z,12.76
2023-04-27T03:46:32.739Z,12.83
2023-04-27T03:49:38.116Z,12.90
2023-04-27T03:52:44.872Z,12.98
2023-04-27T03:55:57.618Z,13.04
2023-04-27T03:59:02.434Z,13.11
2023-04-27T04:02:13.805Z,13.18
2023-04-27T04:05:21.551Z,13.26
2023-04-27T04:08:28.333Z,13.32
2023-04-27T04:11:34.957Z,13.39
2023-04-27T04:14:42.012Z,13.49
2023-04-27T04:17:48.202Z,13.61
2023-04-27T04:20:54.114Z,13.72
2023-04-27T04:24:01.950Z,13.83
2023-04-27T04:27:10.140Z,13.94
2023-04-27T04:30:15.360Z,14.03
2023-04-27T04:33:20.521Z,14.10
2023-04-27T04:36:26.332Z,14.17
2023-04-27T04:39:33.713Z,14.25
2023-04-27T04:42:41.166Z,14.35
2023-04-27T04:45:46.240Z,14.42
2023-04-27T04:48:45.498Z,14.47
2023-04-27T04:51:38.945Z,14.54
2023-04-27T04:54:44.208Z,14.60
2023-04-27T04:57:50.816Z,14.70
2023-04-27T05:00:55.876Z,14.78
2023-04-27T05:04:02.059Z,14.82
2023-04-27T05:07:08.778Z,14.87
2023-04-27T05:10:15.877Z,14.91
2023-04-27T05:13:21.949Z,14.94
2023-04-27T05:16:26.977Z,14.98
2023-04-27T05:19:34.409Z,15.07
2023-04-27T05:22:40.327Z,15.13
2023-04-27T05:25:48.572Z,15.17
2023-04-27T05:28:57.661Z,15.26
2023-04-27T05:32:04.456Z,15.37
2023-04-27T05:35:12.135Z,15.47
2023-04-27T05:38:17.745Z,15.58
2023-04-27T05:41:22.991Z,15.64
2023-04-27T05:44:31.245Z,15.75
2023-04-27T05:47:38.039Z,15.85
2023-04-27T05:50:44.110Z,15.88
2023-04-27T05:53:49.849Z,15.90
2023-04-27T05:56:55.428Z,15.97
2023-04-27T06:00:00.836Z,16.00
2023-04-27T06:03:07.984Z,16.02
2023-04-27T06:06:15.008Z,16.06
2023-04-27T06:09:20.919Z,16.12
2023-04-27T06:12:26.835Z,16.18
2023-04-27T06:15:34.911Z,16.21
2023-04-27T06:18:40.342Z,16.23
2023-04-27T06:21:50.442Z,16.24
2023-04-27T06:24:57.314Z,16.27
2023-04-27T06:28:04.432Z,16.30
2023-04-27T06:31:10.519Z,16.29
2023-04-27T06:34:15.728Z,16.35
2023-04-27T06:37:25.476Z,16.36
2023-04-27T06:40:32.545Z,16.40
2023-04-27T06:43:40.043Z,16.40
2023-04-27T06:46:46.143Z,16.25
2023-04-27T06:49:53.858Z,16.08
2023-04-27T06:53:00.302Z,15.99
2023-04-27T06:56:06.344Z,15.94
2023-04-27T06:59:12.272Z,15.90
2023-04-27T07:02:17.926Z,15.86
2023-04-27T07:05:24.995Z,15.82
2023-04-27T07:08:32.603Z,15.75
2023-04-27T07:11:38.825Z,15.67
2023-04-27T07:14:44.137Z,15.63
2023-04-27T07:17:50.121Z,15.57
2023-04-27T07:20:58.235Z,15.54
2023-04-27T07:24:05.150Z,15.53
2023-04-27T07:27:10.491Z,15.54
2023-04-27T07:30:17.013Z,15.54
2023-04-27T07:33:22.958Z,15.56
2023-04-27T07:36:29.408Z,15.60
2023-04-27T07:39:35.526Z,15.62
2023-04-27T07:42:42.790Z,15.60
2023-04-27T07:45:48.920Z,15.57
2023-04-27T07:48:57.471Z,15.55
2023-04-27T07:52:04.623Z,15.53
2023-04-27T07:55:09.927Z,15.49
2023-04-27T07:58:19.011Z,15.43
2023-04-27T08:01:25.011Z,15.49
2023-04-27T08:04:31.766Z,15.68
2023-04-27T08:07:44.127Z,15.68
2023-04-27T08:10:46.545Z,15.52
2023-04-27T08:13:52.277Z,15.48
2023-04-27T08:16:58.861Z,15.44
2023-04-27T08:20:05.820Z,15.39
2023-04-27T08:23:14.522Z,15.35
2023-04-27T08:26:20.972Z,15.32
2023-04-27T08:29:28.825Z,15.25
2023-04-27T08:32:36.417Z,15.25
2023-04-27T08:35:43.083Z,15.31
2023-04-27T08:38:51.349Z,15.37
2023-04-27T08:42:01.189Z,15.51
2023-04-27T08:45:05.941Z,15.68
2023-04-27T08:48:11.216Z,15.93
2023-04-27T08:51:18.778Z,16.21
2023-04-27T08:54:25.968Z,16.57
2023-04-27T08:57:34.283Z,16.70
2023-04-27T09:00:42.491Z,16.82
2023-04-27T09:03:53.040Z,16.99
2023-04-27T09:06:58.976Z,17.09
2023-04-27T09:10:05.038Z,17.19
2023-04-27T09:13:14.283Z,17.28
2023-04-27T09:16:21.304Z,17.28
2023-04-27T09:19:31.018Z,17.31
2023-04-27T09:22:36.504Z,17.43
2023-04-27T09:25:45.760Z,17.56
2023-04-27T09:28:57.534Z,17.53
2023-04-27T09:32:03.248Z,17.52
2023-04-27T09:35:10.499Z,17.64
2023-04-27T09:38:17.074Z,17.83
2023-04-27T09:41:24.786Z,17.97
2023-04-27T09:44:31.158Z,18.16
2023-04-27T09:47:38.184Z,18.36
2023-04-27T09:50:44.721Z,18.55
2023-04-27T09:54:05.299Z,18.64
2023-04-27T09:57:22.698Z,18.60
2023-04-27T10:01:00.981Z,18.68
2023-04-27T10:04:32.609Z,18.65
2023-04-27T10:07:40.230Z,18.66
2023-04-27T10:10:49.965Z,18.91
2023-04-27T10:14:08.118Z,19.39
2023-04-27T10:17:14.893Z,19.76
2023-04-27T10:20:24.087Z,19.89
2023-04-27T10:23:41.366Z,19.90
2023-04-27T10:26:45.933Z,20.07
2023-04-27T10:29:57.161Z,20.33
2023-04-27T10:33:14.291Z,20.61
2023-04-27T10:36:21.163Z,20.80
2023-04-27T10:39:46.883Z,20.96
2023-04-27T10:42:43.674Z,20.87
2023-04-27T10:45:49.141Z,20.69
2023-04-27T10:49:00.516Z,20.43
2023-04-27T10:52:06.345Z,20.25
2023-04-27T10:55:13.582Z,20.30
2023-04-27T10:58:18.868Z,20.38
2023-04-27T11:01:28.709Z,20.39
2023-04-27T11:04:39.598Z,20.33
2023-04-27T11:08:01.306Z,20.31
2023-04-27T11:11:08.453Z,20.40
2023-04-27T11:14:17.280Z,20.48
2023-04-27T11:17:23.308Z,20.64
2023-04-27T11:20:33.414Z,20.77
2023-04-27T11:23:48.704Z,20.90
2023-04-27T11:26:55.119Z,21.01
2023-04-27T11:30:01.861Z,21.11
2023-04-27T11:33:09.841Z,21.29
2023-04-27T11:36:15.928Z,21.38
2023-04-27T11:39:22.147Z,21.41
2023-04-27T11:42:37.992Z,21.56
2023-04-27T11:45:45.766Z,21.64
2023-04-27T11:48:53.799Z,21.77
2023-04-27T11:52:00.688Z,22.06
2023-04-27T11:55:07.790Z,22.54
2023-04-27T11:58:15.062Z,22.73
2023-04-27T12:01:36.957Z,22.79
2023-04-27T12:04:37.598Z,22.70
2023-04-27T12:07:42.833Z,22.56
2023-04-27T12:10:48.078Z,22.60
2023-04-27T12:13:56.299Z,22.58
2023-04-27T12:17:02.651Z,22.54
2023-04-27T12:20:09.468Z,22.54
2023-04-27T12:23:16.542Z,22.54
2023-04-27T12:26:21.502Z,22.75
2023-04-27T12:29:29.068Z,22.99
2023-04-27T12:32:35.302Z,23.15
2023-04-27T12:35:42.235Z,23.19
2023-04-27T12:38:49.394Z,23.15
2023-04-27T12:41:57.569Z,23.17
2023-04-27T12:45:05.685Z,23.08
2023-04-27T12:48:11.648Z,22.95
2023-04-27T12:51:20.423Z,22.91
2023-04-27T12:54:27.258Z,22.98
2023-04-27T12:57:33.738Z,22.88
2023-04-27T13:00:40.529Z,22.82
2023-04-27T13:03:45.746Z,22.84
2023-04-27T13:06:53.818Z,22.88
2023-04-27T13:10:00.016Z,22.89
2023-04-27T13:13:06.626Z,22.74
2023-04-27T13:16:12.567Z,22.50
2023-04-27T13:19:18.784Z,22.29
2023-04-27T13:22:24.151Z,22.09
2023-04-27T13:25:30.140Z,21.83
2023-04-27T13:28:35.844Z,21.70
2023-04-27T13:31:41.038Z,21.52
2023-04-27T13:35:04.326Z,21.41
2023-04-27T13:38:10.341Z,21.27
2023-04-27T13:41:16.357Z,21.12
2023-04-27T13:44:23.411Z,20.95
2023-04-27T13:47:29.542Z,20.81
2023-04-27T13:50:36.329Z,20.61
2023-04-27T13:53:43.121Z,20.47
2023-04-27T13:56:49.366Z,20.46
2023-04-27T13:59:57.661Z,20.48
2023-04-27T14:03:05.525Z,20.54
2023-04-27T14:06:12.122Z,20.75
2023-04-27T14:09:18.642Z,21.20
2023-04-27T14:12:24.903Z,21.67
2023-04-27T14:15:31.920Z,21.93
2023-04-27T14:18:37.013Z,22.08
2023-04-27T14:21:42.900Z,21.97
2023-04-27T14:24:49.112Z,21.99
2023-04-27T14:27:56.198Z,21.89
2023-04-27T14:31:02.665Z,21.70
2023-04-27T14:34:08.717Z,21.91
2023-04-27T14:37:14.693Z,22.06
2023-04-27T14:40:22.372Z,22.06
2023-04-27T14:43:29.350Z,22.04
2023-04-27T14:46:35.629Z,21.88
2023-04-27T14:49:42.677Z,21.50
2023-04-27T14:52:49.525Z,21.08
2023-04-27T14:55:55.815Z,20.77
2023-04-27T14:59:02.009Z,20.50
2023-04-27T15:02:07.600Z,20.32
2023-04-27T15:05:13.917Z,20.16
2023-04-27T15:08:20.345Z,20.12
2023-04-27T15:11:20.160Z,20.10
2023-04-27T15:14:08.541Z,20.01
2023-04-27T15:17:02.637Z,19.91
2023-04-27T15:20:03.791Z,19.80
2023-04-27T15:23:10.141Z,19.70
2023-04-27T15:26:15.301Z,19.58
2023-04-27T15:29:22.013Z,19.48
2023-04-27T15:32:30.228Z,19.37
2023-04-27T15:35:35.521Z,19.22
2023-04-27T15:38:43.221Z,19.05
2023-04-27T15:41:48.662Z,18.84
2023-04-27T15:44:54.535Z,18.61
2023-04-27T15:48:00.620Z,18.43
2023-04-27T15:51:08.873Z,18.24
2023-04-27T15:54:15.132Z,18.05
2023-04-27T15:57:20.924Z,17.76
2023-04-27T16:00:29.489Z,17.52
2023-04-27T16:03:37.125Z,17.29
2023-04-27T16:06:48.244Z,17.12
2023-04-27T16:09:54.478Z,16.94
2023-04-27T16:13:01.317Z,16.73
2023-04-27T16:16:07.285Z,16.54
2023-04-27T16:19:14.303Z,16.35
2023-04-27T16:22:22.624Z,16.24
2023-04-27T16:25:28.156Z,16.14
2023-04-27T16:28:35.559Z,16.02
2023-04-27T16:31:40.630Z,15.88
2023-04-27T16:34:46.300Z,15.68
2023-04-27T16:37:52.567Z,15.52
2023-04-27T16:41:01.368Z,15.36
2023-04-27T16:44:07.268Z,15.23
2023-04-27T16:47:13.312Z,15.16
2023-04-27T16:50:18.653Z,15.10
2023-04-27T16:53:26.830Z,15.05
2023-04-27T16:56:43.336Z,14.95
2023-04-27T16:59:49.095Z,14.87
2023-04-27T17:02:54.800Z,14.81
2023-04-27T17:06:03.901Z,14.79
2023-04-27T17:09:13.810Z,14.74
2023-04-27T17:12:22.253Z,14.69
2023-04-27T17:15:28.329Z,14.64
2023-04-27T17:18:37.536Z,14.58
2023-04-27T17:21:44.754Z,14.53
2023-04-27T17:24:50.765Z,14.48
2023-04-27T17:27:55.882Z,14.46
2023-04-27T17:31:02.138Z,14.43
2023-04-27T17:34:07.007Z,14.41
2023-04-27T17:37:13.726Z,14.43
2023-04-27T17:40:20.323Z,14.44
2023-04-27T17:43:27.663Z,14.45
2023-04-27T17:46:33.920Z,14.45
2023-04-27T17:49:40.836Z,14.45
2023-04-27T17:52:48.139Z,14.43
2023-04-27T17:55:58.188Z,14.39
2023-04-27T17:59:03.987Z,14.35
2023-04-27T18:02:10.538Z,14.30
2023-04-27T18:05:15.920Z,14.26
2023-04-27T18:08:22.505Z,14.24
2023-04-27T18:11:29.395Z,14.22
2023-04-27T18:14:36.556Z,14.18
2023-04-27T18:17:42.684Z,14.14
2023-04-27T18:20:51.402Z,14.11
2023-04-27T18:23:57.891Z,14.10
2023-04-27T18:27:04.483Z,14.07
2023-04-27T18:30:11.225Z,14.06
2023-04-27T18:33:16.657Z,14.04
2023-04-27T18:36:22.943Z,14.05
2023-04-27T18:39:29.052Z,14.03
2023-04-27T18:42:35.615Z,14.03
2023-04-27T18:45:42.054Z,14.01
2023-04-27T18:48:48.815Z,14.01
2023-04-27T18:51:55.002Z,13.99
2023-04-27T18:55:02.378Z,14.00
2023-04-27T18:58:08.653Z,13.99
2023-04-27T19:01:14.430Z,13.98
2023-04-27T19:04:21.363Z,13.98
2023-04-27T19:07:31.554Z,13.93
2023-04-27T19:10:38.342Z,13.90
2023-04-27T19:13:44.567Z,13.85
2023-04-27T19:16:50.371Z,13.80
2023-04-27T19:19:57.943Z,13.75
2023-04-27T19:23:04.702Z,13.68
2023-04-27T19:26:13.634Z,13.64
2023-04-27T19:29:19.403Z,13.57
2023-04-27T19:32:26.468Z,13.53
2023-04-27T19:35:34.225Z,13.49
2023-04-27T19:38:40.775Z,13.47
2023-04-27T19:41:48.192Z,13.47
2023-04-27T19:44:54.590Z,13.44
2023-04-27T19:48:01.493Z,13.39
2023-04-27T19:51:08.738Z,13.32
2023-04-27T19:54:16.896Z,13.26
2023-04-27T19:57:23.977Z,13.21
2023-04-27T20:00:31.798Z,13.19
2023-04-27T20:03:37.985Z,13.20
2023-04-27T20:06:45.614Z,13.20
2023-04-27T20:09:52.920Z,13.22
2023-04-27T20:12:58.844Z,13.23
2023-04-27T20:16:05.555Z,13.26
2023-04-27T20:19:13.230Z,13.24
2023-04-27T20:22:20.049Z,13.23
2023-04-27T20:25:27.536Z,13.22
2023-04-27T20:28:34.032Z,13.20
2023-04-27T20:31:40.609Z,13.17
2023-04-27T20:34:47.092Z,13.15
2023-04-27T20:37:54.281Z,13.15
2023-04-27T20:41:00.599Z,13.13
2023-04-27T20:44:10.073Z,13.13
2023-04-27T20:47:14.941Z,13.12
2023-04-27T20:50:22.295Z,13.09
2023-04-27T20:53:28.248Z,13.06
2023-04-27T20:56:34.326Z,13.04
2023-04-27T20:59:32.592Z,13.00
2023-04-27T21:02:25.922Z,12.98
2023-04-27T21:05:32.427Z,12.98
2023-04-27T21:08:37.760Z,12.96
2023-04-27T21:11:43.871Z,12.91
2023-04-27T21:14:51.270Z,12.89
2023-04-27T21:17:58.973Z,12.89
2023-04-27T21:21:06.859Z,12.88
2023-04-27T21:24:12.744Z,12.89
2023-04-27T21:27:20.725Z,12.90
2023-04-27T21:30:27.255Z,12.89
2023-04-27T21:33:33.268Z,12.86
2023-04-27T21:36:41.538Z,12.83
2023-04-27T21:39:48.046Z,12.83
2023-04-27T21:42:54.604Z,12.82
2023-04-27T21:45:59.469Z,12.78
2023-04-27T21:49:05.525Z,12.76
2023-04-27T21:52:10.789Z,12.74
2023-04-27T21:55:15.843Z,12.74
2023-04-27T21:58:21.681Z,12.75
2023-04-27T22:01:28.129Z,12.75
2023-04-27T22:04:33.615Z,12.76
2023-04-27T22:07:38.956Z,12.79
2023-04-27T22:10:44.018Z,12.80
2023-04-27T22:13:50.940Z,12.81
2023-04-27T22:16:57.098Z,12.83
2023-04-27T22:20:02.976Z,12.81
2023-04-27T22:23:08.728Z,12.79
2023-04-27T22:26:14.432Z,12.77
2023-04-27T22:29:21.325Z,12.76
2023-04-27T22:32:27.611Z,12.73
2023-04-27T22:35:32.925Z,12.70
2023-04-27T22:38:39.953Z,12.68
2023-04-27T22:41:46.025Z,12.67
2023-04-27T22:44:53.180Z,12.66
2023-04-27T22:47:59.645Z,12.64
2023-04-27T22:51:05.150Z,12.64
2023-04-27T22:54:11.314Z,12.63
2023-04-27T22:57:15.813Z,12.61
2023-04-27T23:00:22.366Z,12.63
2023-04-27T23:03:27.666Z,12.63
2023-04-27T23:06:35.053Z,12.60
2023-04-27T23:09:43.107Z,12.61
2023-04-27T23:12:48.439Z,12.62
2023-04-27T23:15:54.769Z,12.62
2023-04-27T23:19:00.351Z,12.60
2023-04-27T23:22:05.823Z,12.58
2023-04-27T23:25:11.367Z,12.58
2023-04-27T23:28:17.379Z,12.56
2023-04-27T23:31:24.123Z,12.53
2023-04-27T23:34:30.570Z,12.52
2023-04-27T23:37:36.596Z,12.51
2023-04-27T23:40:43.097Z,12.50
2023-04-27T23:43:50.066Z,12.45
2023-04-27T23:46:56.291Z,12.41
2023-04-27T23:50:02.117Z,12.37
2023-04-27T23:53:09.070Z,12.30
2023-04-27T23:56:15.888Z,12.26
2023-04-27T23:59:22.192Z,12.20
